Time;durP1;ratioP1;P1;durP2;ratioP2;P2;SDS_P1;SDS_P2;PMS_P1;PMS_P2;Temp;Humidity;BMP_temperature;BMP_pressure;BME280_temperature;BME280_humidity;BME280_pressure;Samples;Min_cycle;Max_cycle;Signal;HPM_P1;HPM_P2
2023/03/05 00:02:15;;;;;;;18.25;13.70;;;;;;;;;;5044257;28;20052;-64
2023/03/05 00:04:42;;;;;;;15.70;13.68;;;;;;;;;;5054266;28;20052;-64
2023/03/05 00:07:11;;;;;;;15.57;13.98;;;;;;;;;;5054515;28;20049;-64
2023/03/05 00:09:37;;;;;;;15.57;14.07;;;;;;;;;;5053019;28;20064;-64
2023/03/05 00:12:04;;;;;;;15.35;12.82;;;;;;;;;;5050958;28;20075;-64
2023/03/05 00:14:30;;;;;;;14.45;12.95;;;;;;;;;;5035219;28;20057;-64
2023/03/05 00:16:56;;;;;;;15.48;12.73;;;;;;;;;;5033996;28;20049;-65
2023/03/05 00:19:23;;;;;;;15.70;13.23;;;;;;;;;;5033793;28;20050;-65
2023/03/05 00:21:49;;;;;;;14.63;12.70;;;;;;;;;;5032242;28;20531;-65
2023/03/05 00:24:17;;;;;;;15.27;13.23;;;;;;;;;;5051429;28;20056;-64
2023/03/05 00:26:43;;;;;;;16.70;13.15;;;;;;;;;;5048013;28;20056;-64
2023/03/05 00:29:13;;;;;;;17.08;12.60;;;;;;;;;;5043219;28;20536;-64
2023/03/05 00:31:39;;;;;;;16.88;12.77;;;;;;;;;;5047285;28;20045;-64
2023/03/05 00:34:08;;;;;;;18.05;14.90;;;;;;;;;;5054455;28;20045;-64
2023/03/05 00:36:34;;;;;;;17.60;15.70;;;;;;;;;;5048152;28;20053;-64
2023/03/05 00:39:00;;;;;;;17.45;13.80;;;;;;;;;;5052020;28;20041;-65
2023/03/05 00:41:27;;;;;;;16.95;12.85;;;;;;;;;;5050198;28;20056;-64
2023/03/05 00:43:53;;;;;;;16.42;12.85;;;;;;;;;;5050910;28;20043;-64
2023/03/05 00:46:20;;;;;;;15.70;13.77;;;;;;;;;;5050460;28;20099;-64
2023/03/05 00:48:47;;;;;;;17.23;14.43;;;;;;;;;;5049442;28;20444;-64
2023/03/05 00:51:13;;;;;;;19.05;13.90;;;;;;;;;;5051579;28;20516;-64
2023/03/05 00:53:39;;;;;;;15.48;13.85;;;;;;;;;;5046044;28;20045;-64
2023/03/05 00:56:06;;;;;;;15.13;13.65;;;;;;;;;;5053017;28;20053;-65
2023/03/05 00:58:32;;;;;;;16.23;13.82;;;;;;;;;;5045463;28;20151;-64
2023/03/05 01:01:00;;;;;;;18.45;14.02;;;;;;;;;;5053027;28;20041;-65
2023/03/05 01:03:27;;;;;;;16.55;13.98;;;;;;;;;;5041871;28;20102;-65
2023/03/05 01:05:53;;;;;;;15.90;13.60;;;;;;;;;;5054068;28;20063;-65
2023/03/05 01:08:19;;;;;;;16.65;13.85;;;;;;;;;;5041523;28;20045;-65
2023/03/05 01:10:46;;;;;;;16.58;13.65;;;;;;;;;;5053728;28;20475;-65
2023/03/05 01:13:13;;;;;;;16.00;14.30;;;;;;;;;;5040908;28;20057;-65
2023/03/05 01:15:40;;;;;;;16.35;14.60;;;;;;;;;;5053612;28;20059;-65
2023/03/05 01:18:06;;;;;;;15.68;13.95;;;;;;;;;;5029083;28;20057;-65
2023/03/05 01:20:33;;;;;;;16.23;13.70;;;;;;;;;;5045815;28;20056;-65
2023/03/05 01:23:00;;;;;;;16.40;14.63;;;;;;;;;;5023883;28;20049;-65
2023/03/05 01:25:27;;;;;;;17.05;14.60;;;;;;;;;;5053725;28;20076;-65
2023/03/05 01:27:53;;;;;;;15.95;14.13;;;;;;;;;;5024959;28;20416;-65
2023/03/05 01:30:20;;;;;;;16.30;14.57;;;;;;;;;;5053293;28;20047;-65
2023/03/05 01:32:46;;;;;;;16.98;15.05;;;;;;;;;;5047336;28;20066;-65
2023/03/05 01:35:17;;;;;;;20.80;14.57;;;;;;;;;;5053265;28;20056;-65
2023/03/05 01:37:44;;;;;;;16.50;14.68;;;;;;;;;;5046410;28;20448;-65
2023/03/05 01:40:11;;;;;;;18.15;14.80;;;;;;;;;;5053173;28;20055;-65
2023/03/05 01:42:38;;;;;;;16.83;14.35;;;;;;;;;;5040428;28;20041;-65
2023/03/05 01:45:09;;;;;;;18.95;15.30;;;;;;;;;;5052920;28;20045;-65
2023/03/05 01:47:35;;;;;;;16.85;14.32;;;;;;;;;;5044436;28;20099;-65
2023/03/05 01:50:03;;;;;;;17.27;14.15;;;;;;;;;;5052844;28;20151;-65
2023/03/05 01:52:31;;;;;;;19.05;15.32;;;;;;;;;;5043193;28;20108;-65
2023/03/05 01:55:02;;;;;;;16.58;14.32;;;;;;;;;;5052864;28;20063;-65
2023/03/05 01:57:29;;;;;;;17.77;14.38;;;;;;;;;;5035046;28;20095;-65
2023/03/05 01:59:56;;;;;;;16.77;14.20;;;;;;;;;;5052817;28;20374;-65
2023/03/05 02:02:23;;;;;;;17.15;14.90;;;;;;;;;;5041002;28;20045;-65
2023/03/05 02:04:53;;;;;;;20.50;15.32;;;;;;;;;;5052781;28;20041;-65
2023/03/05 02:07:20;;;;;;;17.85;15.07;;;;;;;;;;5031492;28;20137;-65
2023/03/05 02:09:47;;;;;;;19.98;14.95;;;;;;;;;;5018923;28;20045;-65
2023/03/05 02:12:13;;;;;;;16.90;15.05;;;;;;;;;;5033563;28;20076;-65
2023/03/05 02:14:41;;;;;;;17.17;14.82;;;;;;;;;;5051189;28;20049;-65
2023/03/05 02:17:08;;;;;;;18.85;15.65;;;;;;;;;;5034528;28;20053;-65
2023/03/05 02:19:54;;;;;;;17.63;15.75;;;;;;;;;;5046222;28;20045;-65
2023/03/05 02:22:22;;;;;;;17.75;14.75;;;;;;;;;;5032119;28;20071;-65
2023/03/05 02:24:48;;;;;;;18.60;15.53;;;;;;;;;;5049716;28;20128;-65
2023/03/05 02:27:15;;;;;;;17.73;15.32;;;;;;;;;;5040843;28;20808;-65
2023/03/05 02:29:43;;;;;;;20.08;14.82;;;;;;;;;;5048061;28;20057;-65
2023/03/05 02:32:10;;;;;;;20.73;16.15;;;;;;;;;;5042505;28;20561;-65
2023/03/05 02:34:36;;;;;;;20.55;15.65;;;;;;;;;;5052288;28;20053;-66
2023/03/05 02:37:03;;;;;;;18.52;15.77;;;;;;;;;;5045080;28;20057;-65
2023/03/05 02:39:30;;;;;;;19.73;16.83;;;;;;;;;;5051983;28;20049;-65
2023/03/05 02:41:56;;;;;;;19.02;15.98;;;;;;;;;;5044259;28;20270;-65
2023/03/05 02:44:23;;;;;;;18.48;15.68;;;;;;;;;;5052132;28;20049;-65
2023/03/05 02:46:49;;;;;;;18.67;16.13;;;;;;;;;;5039318;28;20046;-65
2023/03/05 02:49:15;;;;;;;18.92;16.40;;;;;;;;;;5050497;28;20080;-65
2023/03/05 02:51:42;;;;;;;18.08;16.02;;;;;;;;;;5041089;28;20054;-65
2023/03/05 02:54:08;;;;;;;18.77;15.02;;;;;;;;;;5046540;28;20049;-65
2023/03/05 02:56:37;;;;;;;18.25;15.38;;;;;;;;;;5045959;28;20057;-65
2023/03/05 02:59:03;;;;;;;17.02;15.20;;;;;;;;;;5047297;28;20049;-65
2023/03/05 03:01:29;;;;;;;17.65;15.55;;;;;;;;;;5046686;28;20048;-65
2023/03/05 03:03:56;;;;;;;20.13;16.88;;;;;;;;;;5045734;28;20405;-65
2023/03/05 03:06:22;;;;;;;22.02;16.67;;;;;;;;;;5046586;28;20168;-65
2023/03/05 03:08:48;;;;;;;20.65;16.48;;;;;;;;;;5035753;28;20053;-65
2023/03/05 03:11:16;;;;;;;18.58;16.33;;;;;;;;;;5048438;28;20053;-65
2023/03/05 03:13:43;;;;;;;22.15;16.60;;;;;;;;;;5040757;28;20131;-65
2023/03/05 03:16:10;;;;;;;21.25;16.75;;;;;;;;;;5049471;28;20146;-65
2023/03/05 03:18:37;;;;;;;19.20;16.08;;;;;;;;;;5040559;28;20059;-65
2023/03/05 03:21:04;;;;;;;19.70;16.45;;;;;;;;;;5040262;28;20125;-65
2023/03/05 03:23:30;;;;;;;22.10;16.70;;;;;;;;;;5037968;28;20656;-65
2023/03/05 03:25:57;;;;;;;18.23;16.30;;;;;;;;;;5055171;28;20518;-65
2023/03/05 03:28:24;;;;;;;22.17;16.50;;;;;;;;;;5027857;28;20045;-65
2023/03/05 03:30:50;;;;;;;19.90;16.40;;;;;;;;;;5055455;28;20041;-65
2023/03/05 03:33:17;;;;;;;21.63;16.50;;;;;;;;;;5048535;28;20056;-65
2023/03/05 03:35:44;;;;;;;20.58;16.95;;;;;;;;;;5054777;28;20049;-65
2023/03/05 03:38:12;;;;;;;18.70;16.70;;;;;;;;;;5044581;28;20053;-65
2023/03/05 03:40:39;;;;;;;20.65;15.60;;;;;;;;;;5055117;28;20045;-65
2023/03/05 03:43:06;;;;;;;20.75;16.08;;;;;;;;;;5042768;28;20044;-65
2023/03/05 03:45:33;;;;;;;22.15;18.38;;;;;;;;;;5054014;28;20053;-65
2023/03/05 03:47:59;;;;;;;24.10;17.42;;;;;;;;;;5046612;28;20048;-65
2023/03/05 03:50:25;;;;;;;23.40;17.83;;;;;;;;;;5048669;28;20057;-65
2023/03/05 03:52:52;;;;;;;23.88;17.73;;;;;;;;;;5037955;28;20051;-65
2023/03/05 03:55:18;;;;;;;21.38;17.63;;;;;;;;;;5055112;28;20045;-65
2023/03/05 03:57:44;;;;;;;20.85;17.90;;;;;;;;;;5040488;28;20054;-65
2023/03/05 04:00:11;;;;;;;20.58;17.10;;;;;;;;;;5054754;28;20045;-65
2023/03/05 04:02:38;;;;;;;25.23;18.00;;;;;;;;;;5041140;28;20051;-65
2023/03/05 04:05:04;;;;;;;20.13;16.83;;;;;;;;;;5054775;28;20493;-65
2023/03/05 04:07:30;;;;;;;24.33;18.55;;;;;;;;;;5045370;28;20045;-65
2023/03/05 04:09:57;;;;;;;23.92;18.45;;;;;;;;;;5054850;28;20630;-65
2023/03/05 04:12:23;;;;;;;24.95;19.20;;;;;;;;;;5036750;28;20512;-65
2023/03/05 04:14:50;;;;;;;35.85;23.98;;;;;;;;;;5054754;28;20053;-65
2023/03/05 04:17:16;;;;;;;32.28;22.63;;;;;;;;;;5043605;28;20490;-65
2023/03/05 04:19:43;;;;;;;28.05;20.10;;;;;;;;;;5054059;28;20049;-65
2023/03/05 04:22:11;;;;;;;25.85;20.08;;;;;;;;;;5029232;28;20049;-65
2023/03/05 04:24:37;;;;;;;25.40;19.50;;;;;;;;;;5052002;28;20045;-65
2023/03/05 04:27:04;;;;;;;25.30;18.60;;;;;;;;;;5045010;28;20129;-65
2023/03/05 04:29:31;;;;;;;23.10;18.40;;;;;;;;;;5050836;28;20511;-65
2023/03/05 04:31:57;;;;;;;23.70;18.83;;;;;;;;;;5045727;28;20056;-65
2023/03/05 04:34:24;;;;;;;27.83;19.35;;;;;;;;;;5048991;28;20048;-65
2023/03/05 04:36:50;;;;;;;26.02;19.45;;;;;;;;;;5039975;28;20132;-65
2023/03/05 04:39:19;;;;;;;23.15;18.85;;;;;;;;;;5040468;28;20049;-65
2023/03/05 04:41:46;;;;;;;27.20;19.33;;;;;;;;;;5047553;28;20049;-65
2023/03/05 04:44:13;;;;;;;26.88;19.73;;;;;;;;;;5046054;28;20049;-65
2023/03/05 04:46:39;;;;;;;26.00;19.48;;;;;;;;;;5051491;28;20124;-65
2023/03/05 04:49:06;;;;;;;26.13;19.40;;;;;;;;;;5053874;28;20052;-65
2023/03/05 04:51:32;;;;;;;24.10;19.42;;;;;;;;;;5050323;28;20073;-65
2023/03/05 04:53:58;;;;;;;24.77;18.80;;;;;;;;;;5054190;28;20045;-65
2023/03/05 04:56:25;;;;;;;22.02;17.35;;;;;;;;;;5049924;28;20053;-65
2023/03/05 04:58:51;;;;;;;28.98;19.83;;;;;;;;;;5040089;28;20045;-65
2023/03/05 05:01:17;;;;;;;22.08;17.67;;;;;;;;;;5050754;28;20045;-65
2023/03/05 05:03:44;;;;;;;26.45;19.15;;;;;;;;;;5050948;28;20047;-65
2023/03/05 05:06:10;;;;;;;24.83;19.55;;;;;;;;;;5052446;28;20053;-65
2023/03/05 05:08:37;;;;;;;24.40;18.13;;;;;;;;;;5044760;28;20049;-65
2023/03/05 05:11:04;;;;;;;23.08;18.15;;;;;;;;;;5053842;28;20053;-65
2023/03/05 05:13:31;;;;;;;23.77;18.73;;;;;;;;;;5047035;28;20057;-65
2023/03/05 05:15:57;;;;;;;23.58;18.42;;;;;;;;;;5053523;28;20068;-65
2023/03/05 05:18:24;;;;;;;26.10;18.95;;;;;;;;;;5044979;28;20049;-65
2023/03/05 05:20:51;;;;;;;25.02;19.73;;;;;;;;;;5047941;28;20078;-65
2023/03/05 05:23:17;;;;;;;27.52;20.48;;;;;;;;;;5037462;28;20059;-65
2023/03/05 05:25:44;;;;;;;29.55;21.27;;;;;;;;;;5053215;28;20407;-65
2023/03/05 05:28:11;;;;;;;31.15;22.38;;;;;;;;;;5035406;28;20148;-65
2023/03/05 05:30:37;;;;;;;29.33;21.30;;;;;;;;;;5053208;28;20059;-65
2023/03/05 05:33:04;;;;;;;27.70;21.15;;;;;;;;;;5042004;28;20507;-65
2023/03/05 05:35:30;;;;;;;26.15;20.05;;;;;;;;;;5053205;28;20493;-65
2023/03/05 05:37:57;;;;;;;28.75;21.15;;;;;;;;;;5041247;28;20106;-65
2023/03/05 05:40:23;;;;;;;26.88;20.00;;;;;;;;;;5053215;28;20072;-65
2023/03/05 05:42:49;;;;;;;26.83;20.40;;;;;;;;;;5030331;28;20401;-65
2023/03/05 05:45:16;;;;;;;23.67;17.80;;;;;;;;;;5052907;28;20041;-65
2023/03/05 05:47:42;;;;;;;20.30;16.13;;;;;;;;;;5038737;28;20049;-65
2023/03/05 05:50:10;;;;;;;20.13;15.23;;;;;;;;;;5052837;28;20053;-65
2023/03/05 05:52:36;;;;;;;17.08;13.80;;;;;;;;;;5027738;28;20072;-65
2023/03/05 05:55:02;;;;;;;15.90;13.55;;;;;;;;;;5052399;28;20049;-65
2023/03/05 05:57:29;;;;;;;18.38;14.30;;;;;;;;;;5028949;28;20058;-65
2023/03/05 05:59:55;;;;;;;20.65;14.13;;;;;;;;;;5048249;28;20060;-65
2023/03/05 06:02:22;;;;;;;18.45;12.10;;;;;;;;;;5028538;28;20055;-65
2023/03/05 06:04:48;;;;;;;13.73;11.43;;;;;;;;;;5052863;28;20064;-65
2023/03/05 06:07:14;;;;;;;11.02;9.48;;;;;;;;;;5045692;28;20044;-65
2023/03/05 06:09:41;;;;;;;10.38;8.70;;;;;;;;;;5052185;28;20052;-65
2023/03/05 06:12:07;;;;;;;9.68;7.88;;;;;;;;;;5043790;28;20053;-65
2023/03/05 06:14:33;;;;;;;8.25;6.78;;;;;;;;;;5052325;28;20057;-65
2023/03/05 06:17:00;;;;;;;9.63;7.38;;;;;;;;;;5043919;28;20049;-65
2023/03/05 06:19:26;;;;;;;9.40;7.28;;;;;;;;;;5052591;28;20098;-65
2023/03/05 06:21:53;;;;;;;8.43;7.00;;;;;;;;;;5038031;28;20056;-65
2023/03/05 06:24:19;;;;;;;8.40;7.07;;;;;;;;;;5051525;28;20041;-65
2023/03/05 06:26:47;;;;;;;7.95;6.55;;;;;;;;;;5045265;28;20053;-65
2023/03/05 06:29:14;;;;;;;8.77;7.18;;;;;;;;;;5049157;28;20496;-65
2023/03/05 06:31:40;;;;;;;7.15;5.90;;;;;;;;;;5042331;28;20050;-65
2023/03/05 06:34:06;;;;;;;7.35;5.40;;;;;;;;;;5043129;28;20053;-65
2023/03/05 06:36:33;;;;;;;5.30;4.80;;;;;;;;;;5046636;28;20568;-65
2023/03/05 06:38:59;;;;;;;7.03;5.00;;;;;;;;;;5045524;28;20525;-65
2023/03/05 06:41:27;;;;;;;6.43;4.85;;;;;;;;;;5047356;28;20050;-65
2023/03/05 06:43:53;;;;;;;6.18;5.22;;;;;;;;;;5044189;28;20049;-65
2023/03/05 06:46:24;;;;;;;5.97;4.80;;;;;;;;;;5047290;28;20045;-65
2023/03/05 06:48:51;;;;;;;6.25;5.03;;;;;;;;;;5033750;28;20049;-65
2023/03/05 06:51:19;;;;;;;5.90;4.85;;;;;;;;;;5048566;28;20069;-65
2023/03/05 06:53:46;;;;;;;;;;;;;;;;;;5041462;28;20055;-65
2023/03/05 06:56:15;;;;;;;5.35;4.85;;;;;;;;;;5049242;28;19931;-65
2023/03/05 06:58:42;;;;;;;6.85;4.85;;;;;;;;;;5037768;28;20095;-65
2023/03/05 07:01:09;;;;;;;5.90;4.80;;;;;;;;;;5050293;28;20048;-65
2023/03/05 07:03:35;;;;;;;5.63;4.47;;;;;;;;;;5043802;28;20408;-65
2023/03/05 07:06:05;;;;;;;7.38;4.45;;;;;;;;;;5051878;28;20080;-65
2023/03/05 07:08:32;;;;;;;5.45;4.93;;;;;;;;;;5046337;28;20449;-64
2023/03/05 07:10:58;;;;;;;7.22;5.07;;;;;;;;;;5051443;28;20044;-65
2023/03/05 07:13:25;;;;;;;6.57;4.75;;;;;;;;;;5043873;28;20140;-65
2023/03/05 07:15:51;;;;;;;8.18;4.75;;;;;;;;;;5051397;28;20087;-65
2023/03/05 07:18:18;;;;;;;5.90;4.70;;;;;;;;;;5037320;28;20156;-65
2023/03/05 07:20:44;;;;;;;5.20;4.70;;;;;;;;;;5045986;28;20049;-65
2023/03/05 07:23:11;;;;;;;7.40;4.55;;;;;;;;;;5041900;28;20489;-65
2023/03/05 07:25:38;;;;;;;5.90;5.30;;;;;;;;;;5051558;28;20049;-65
2023/03/05 07:28:05;;;;;;;6.03;5.07;;;;;;;;;;5033915;28;20041;-65
2023/03/05 07:30:32;;;;;;;5.30;4.10;;;;;;;;;;5051350;28;20053;-65
2023/03/05 07:32:58;;;;;;;5.10;4.35;;;;;;;;;;5031865;28;20477;-65
2023/03/05 07:35:25;;;;;;;4.38;3.97;;;;;;;;;;5051320;28;20049;-65
2023/03/05 07:37:53;;;;;;;6.53;4.32;;;;;;;;;;5039480;28;20056;-65
2023/03/05 07:40:20;;;;;;;5.88;4.65;;;;;;;;;;5051434;28;20059;-65
2023/03/05 07:42:47;;;;;;;8.07;4.55;;;;;;;;;;5037282;28;20061;-65
2023/03/05 07:45:13;;;;;;;5.22;4.57;;;;;;;;;;5051161;28;20398;-65
2023/03/05 07:47:39;;;;;;;5.75;4.70;;;;;;;;;;5037151;28;20507;-65
2023/03/05 07:50:06;;;;;;;6.03;4.30;;;;;;;;;;5051903;28;20067;-65
2023/03/05 07:52:32;;;;;;;6.32;4.22;;;;;;;;;;5026864;28;20046;-65
2023/03/05 07:54:59;;;;;;;4.28;3.88;;;;;;;;;;5049785;28;20048;-65
2023/03/05 07:57:25;;;;;;;4.47;3.38;;;;;;;;;;5029160;28;20057;-65
2023/03/05 07:59:51;;;;;;;4.70;3.83;;;;;;;;;;5046147;28;20053;-65
2023/03/05 08:02:18;;;;;;;4.90;3.75;;;;;;;;;;5041772;28;20055;-65
2023/03/05 08:04:45;;;;;;;4.10;3.65;;;;;;;;;;5051049;28;20056;-65
2023/03/05 08:07:13;;;;;;;4.70;4.00;;;;;;;;;;5044381;28;20056;-65
2023/03/05 08:09:41;;;;;;;6.03;3.78;;;;;;;;;;5050892;28;20055;-65
2023/03/05 08:12:09;;;;;;;;;;;;;;;;;;5042521;28;20136;-65
2023/03/05 08:14:35;;;;;;;3.85;3.55;;;;;;;;;;5032009;28;19955;-65
2023/03/05 08:17:05;;;;;;;4.93;3.50;;;;;;;;;;5054451;28;20053;-65
2023/03/05 08:19:32;;;;;;;6.93;3.92;;;;;;;;;;5054581;28;20049;-65
2023/03/05 08:21:58;;;;;;;4.78;3.40;;;;;;;;;;5048354;28;20064;-63
2023/03/05 08:24:28;;;;;;;6.95;4.65;;;;;;;;;;5054079;28;20076;-64
2023/03/05 08:26:56;;;;;;;8.70;4.95;;;;;;;;;;5054344;28;20049;-64
2023/03/05 08:29:22;;;;;;;8.85;4.60;;;;;;;;;;5039855;28;20045;-65
2023/03/05 08:31:50;;;;;;;9.70;5.93;;;;;;;;;;5040812;28;20045;-65
2023/03/05 08:34:16;;;;;;;6.50;4.65;;;;;;;;;;5053945;28;20136;-65
2023/03/05 08:36:43;;;;;;;8.52;5.50;;;;;;;;;;5047241;28;20041;-65
2023/03/05 08:39:09;;;;;;;7.93;5.05;;;;;;;;;;5046547;28;20045;-65
2023/03/05 08:41:35;;;;;;;7.55;5.63;;;;;;;;;;5053844;28;20145;-65
2023/03/05 08:44:02;;;;;;;7.47;5.43;;;;;;;;;;5053662;28;20045;-65
2023/03/05 08:46:29;;;;;;;11.30;6.75;;;;;;;;;;5053522;28;20083;-66
2023/03/05 08:48:55;;;;;;;5.60;4.90;;;;;;;;;;5053598;28;20041;-65
2023/03/05 08:51:25;;;;;;;5.68;4.43;;;;;;;;;;5053323;28;20063;-64
2023/03/05 08:53:53;;;;;;;6.28;4.45;;;;;;;;;;5053472;28;20052;-64
2023/03/05 08:56:20;;;;;;;5.13;4.63;;;;;;;;;;5053632;28;20165;-65
2023/03/05 08:58:47;;;;;;;5.05;4.30;;;;;;;;;;5051313;28;20127;-65
2023/03/05 09:01:13;;;;;;;6.40;4.53;;;;;;;;;;5053360;28;20049;-65
2023/03/05 09:03:40;;;;;;;5.88;4.25;;;;;;;;;;5053420;28;20480;-65
2023/03/05 09:06:07;;;;;;;6.57;4.72;;;;;;;;;;5053177;28;20052;-65
2023/03/05 09:08:34;;;;;;;6.20;4.85;;;;;;;;;;5053157;28;20048;-65
2023/03/05 09:11:01;;;;;;;6.70;4.63;;;;;;;;;;5053141;28;20083;-65
2023/03/05 09:13:28;;;;;;;5.53;5.00;;;;;;;;;;5052715;28;20140;-64
2023/03/05 09:15:55;;;;;;;4.22;3.65;;;;;;;;;;5033082;28;20056;-65
2023/03/05 09:18:22;;;;;;;5.07;3.60;;;;;;;;;;5032937;28;20063;-65
2023/03/05 09:20:48;;;;;;;5.38;4.25;;;;;;;;;;5032845;28;20053;-64
2023/03/05 09:23:15;;;;;;;5.95;4.07;;;;;;;;;;5032066;28;20505;-65
2023/03/05 09:25:41;;;;;;;5.30;4.75;;;;;;;;;;5032733;28;20390;-65
2023/03/05 09:28:07;;;;;;;6.43;4.13;;;;;;;;;;5032857;28;20473;-66
2023/03/05 09:30:34;;;;;;;6.15;4.55;;;;;;;;;;5033070;28;20056;-65
2023/03/05 09:33:01;;;;;;;5.30;4.80;;;;;;;;;;5032646;28;20056;-65
2023/03/05 09:35:27;;;;;;;6.07;4.55;;;;;;;;;;5042147;28;20405;-64
2023/03/05 09:37:54;;;;;;;5.40;4.18;;;;;;;;;;5051704;28;20049;-64
2023/03/05 09:40:20;;;;;;;5.95;4.28;;;;;;;;;;5052861;28;20068;-65
2023/03/05 09:42:47;;;;;;;5.10;4.60;;;;;;;;;;5052328;28;20063;-65
2023/03/05 09:45:27;;;;;;;6.60;4.50;;;;;;;;;;5052665;28;20055;-65
2023/03/05 09:47:58;;;;;;;6.35;4.13;;;;;;;;;;5052681;28;20110;-65
2023/03/05 09:50:47;;;;;;;4.40;4.00;;;;;;;;;;5042139;28;20057;-65
2023/03/05 09:53:26;;;;;;;7.63;5.30;;;;;;;;;;5051397;28;20053;-65
2023/03/05 09:55:57;;;;;;;5.00;4.50;;;;;;;;;;5036494;28;20417;-65
2023/03/05 09:58:36;;;;;;;4.63;4.22;;;;;;;;;;5033671;28;20084;-65
2023/03/05 10:01:25;;;;;;;6.88;4.75;;;;;;;;;;5052096;28;20079;-64
2023/03/05 10:04:00;;;;;;;4.93;3.95;;;;;;;;;;5052427;28;20049;-64
2023/03/05 10:06:30;;;;;;;4.93;4.43;;;;;;;;;;5052118;28;20063;-65
2023/03/05 10:09:02;;;;;;;5.90;4.22;;;;;;;;;;5052178;28;20041;-65
2023/03/05 10:11:43;;;;;;;5.93;4.35;;;;;;;;;;5051979;28;20053;-65
2023/03/05 10:14:12;;;;;;;6.88;5.07;;;;;;;;;;5051798;28;20497;-65
2023/03/05 10:16:42;;;;;;;6.55;5.25;;;;;;;;;;5052163;28;20056;-65
2023/03/05 10:19:12;;;;;;;6.40;5.55;;;;;;;;;;5052063;28;20053;-65
2023/03/05 10:21:45;;;;;;;5.93;5.43;;;;;;;;;;5048146;28;20413;-63
2023/03/05 10:24:30;;;;;;;6.55;5.75;;;;;;;;;;5051687;28;20048;-64
2023/03/05 10:26:58;;;;;;;8.23;5.47;;;;;;;;;;5052170;28;20045;-64
2023/03/05 10:29:31;;;;;;;7.28;4.65;;;;;;;;;;5051841;28;20049;-64
2023/03/05 10:32:03;;;;;;;6.20;4.43;;;;;;;;;;5043806;28;20049;-63
2023/03/05 10:34:33;;;;;;;5.63;4.53;;;;;;;;;;5031816;28;20053;-65
2023/03/05 10:37:08;;;;;;;6.43;4.53;;;;;;;;;;5034725;28;20045;-65
2023/03/05 10:39:53;;;;;;;5.55;4.40;;;;;;;;;;5051687;28;20052;-64
2023/03/05 10:42:38;;;;;;;5.88;4.40;;;;;;;;;;5051565;28;20136;-64
2023/03/05 10:45:13;;;;;;;6.60;5.30;;;;;;;;;;5051486;28;20052;-65
2023/03/05 10:47:40;;;;;;;7.90;6.78;;;;;;;;;;5051735;28;20075;-65
2023/03/05 10:50:14;;;;;;;6.25;5.50;;;;;;;;;;5051152;28;20059;-65
2023/03/05 10:52:45;;;;;;;12.70;9.48;;;;;;;;;;5051522;28;20051;-65
2023/03/05 10:55:16;;;;;;;9.50;7.60;;;;;;;;;;5051365;28;20049;-65
2023/03/05 10:57:43;;;;;;;8.77;7.47;;;;;;;;;;5051139;28;20048;-65
2023/03/05 11:00:20;;;;;;;5.25;4.03;;;;;;;;;;5049328;28;20056;-64
2023/03/05 11:02:57;;;;;;;17.35;13.80;;;;;;;;;;5051225;28;20069;-66
2023/03/05 11:05:52;;;;;;;8.18;7.38;;;;;;;;;;5051117;28;20128;-66
2023/03/05 11:08:23;;;;;;;5.63;5.13;;;;;;;;;;5014788;28;20050;-65
2023/03/05 11:11:08;;;;;;;7.55;5.65;;;;;;;;;;5039100;28;20076;-65
2023/03/05 11:13:37;;;;;;;6.75;5.15;;;;;;;;;;5040975;28;20620;-66
2023/03/05 11:16:04;;;;;;;7.38;5.07;;;;;;;;;;5031037;28;20424;-65
2023/03/05 11:18:33;;;;;;;5.38;4.47;;;;;;;;;;5047601;28;20049;-64
2023/03/05 11:21:07;;;;;;;7.03;4.20;;;;;;;;;;5049036;28;20102;-65
2023/03/05 11:23:34;;;;;;;6.78;4.40;;;;;;;;;;5038429;28;20493;-66
2023/03/05 11:26:06;;;;;;;5.22;4.55;;;;;;;;;;5048903;28;20041;-65
2023/03/05 11:28:53;;;;;;;7.47;5.05;;;;;;;;;;5050812;28;20083;-65
2023/03/05 11:31:23;;;;;;;17.67;16.38;;;;;;;;;;5050909;28;20045;-65
2023/03/05 11:33:57;;;;;;;20.17;18.17;;;;;;;;;;5049530;28;20088;-65
2023/03/05 11:36:24;;;;;;;15.75;14.18;;;;;;;;;;5050842;28;20041;-65
2023/03/05 11:38:55;;;;;;;15.70;14.18;;;;;;;;;;5038141;28;20051;-65
2023/03/05 11:41:42;;;;;;;23.20;20.77;;;;;;;;;;5030328;28;20046;-65
2023/03/05 11:44:13;;;;;;;6.47;4.65;;;;;;;;;;5030928;28;20136;-65
2023/03/05 11:46:42;;;;;;;18.13;16.35;;;;;;;;;;5053117;28;20128;-65
2023/03/05 11:49:11;;;;;;;8.40;6.00;;;;;;;;;;5054556;28;20071;-65
2023/03/05 11:51:44;;;;;;;5.32;4.50;;;;;;;;;;5054671;28;20044;-65
2023/03/05 11:54:16;;;;;;;6.47;4.93;;;;;;;;;;5054488;28;20045;-65
2023/03/05 11:56:44;;;;;;;15.93;14.43;;;;;;;;;;5054695;28;20075;-65
2023/03/05 11:59:13;;;;;;;27.23;24.83;;;;;;;;;;5052710;28;20127;-65
2023/03/05 12:01:45;;;;;;;14.43;13.23;;;;;;;;;;5050081;28;20053;-65
2023/03/05 12:04:12;;;;;;;24.30;22.40;;;;;;;;;;5044337;28;20056;-66
2023/03/05 12:06:47;;;;;;;9.70;8.60;;;;;;;;;;5054197;28;20481;-65
2023/03/05 12:09:27;;;;;;;17.38;14.82;;;;;;;;;;5054419;28;20079;-66
2023/03/05 12:11:57;;;;;;;13.40;11.98;;;;;;;;;;5054319;28;20135;-65
2023/03/05 12:14:26;;;;;;;9.80;8.88;;;;;;;;;;5054190;28;20051;-65
2023/03/05 12:17:11;;;;;;;17.73;14.13;;;;;;;;;;5054109;28;20045;-66
2023/03/05 12:19:50;;;;;;;14.27;10.82;;;;;;;;;;5022574;28;20069;-65
2023/03/05 12:22:30;;;;;;;22.52;20.13;;;;;;;;;;5036642;28;20053;-66
2023/03/05 12:25:16;;;;;;;25.75;23.35;;;;;;;;;;5039829;28;20041;-66
2023/03/05 12:27:42;;;;;;;35.95;32.85;;;;;;;;;;5045636;28;20075;-65
2023/03/05 12:30:29;;;;;;;25.30;23.10;;;;;;;;;;5044801;28;20056;-65
2023/03/05 12:32:55;;;;;;;24.70;22.27;;;;;;;;;;5021562;28;20136;-66
2023/03/05 12:35:23;;;;;;;28.80;26.35;;;;;;;;;;5043062;28;20053;-66
2023/03/05 12:37:50;;;;;;;15.88;14.65;;;;;;;;;;5053873;28;20136;-68
2023/03/05 12:40:16;;;;;;;13.18;9.77;;;;;;;;;;5053096;28;20048;-68
2023/03/05 12:43:02;;;;;;;7.68;6.82;;;;;;;;;;5053421;28;20481;-66
2023/03/05 12:45:30;;;;;;;8.10;7.35;;;;;;;;;;5041275;28;20049;-65
2023/03/05 12:47:56;;;;;;;14.73;13.43;;;;;;;;;;5034369;28;20141;-66
2023/03/05 12:50:25;;;;;;;39.22;33.20;;;;;;;;;;5033681;28;20452;-66
2023/03/05 12:52:56;;;;;;;18.25;16.42;;;;;;;;;;5041103;28;20083;-65
2023/03/05 12:55:27;;;;;;;19.48;17.38;;;;;;;;;;5051024;28;20132;-65
2023/03/05 12:57:57;;;;;;;24.30;21.90;;;;;;;;;;5052139;28;20060;-65
2023/03/05 13:00:26;;;;;;;23.45;21.25;;;;;;;;;;5053197;28;20075;-65
2023/03/05 13:02:57;;;;;;;15.45;13.95;;;;;;;;;;5053118;28;20560;-65
2023/03/05 13:05:35;;;;;;;20.85;18.83;;;;;;;;;;5053220;28;20448;-65
2023/03/05 13:08:30;;;;;;;18.27;16.67;;;;;;;;;;5053410;28;20106;-65
2023/03/05 13:10:59;;;;;;;16.63;14.93;;;;;;;;;;5052110;28;20045;-66
2023/03/05 13:13:27;;;;;;;19.02;15.77;;;;;;;;;;5040478;28;20049;-65
2023/03/05 13:15:55;;;;;;;33.13;23.75;;;;;;;;;;5052638;28;20044;-66
2023/03/05 13:18:28;;;;;;;12.95;9.57;;;;;;;;;;5052972;28;20421;-65
2023/03/05 13:21:03;;;;;;;27.73;21.15;;;;;;;;;;5047247;28;20044;-66
2023/03/05 13:23:31;;;;;;;12.98;11.52;;;;;;;;;;5033655;28;20041;-65
2023/03/05 13:26:09;;;;;;;9.43;7.40;;;;;;;;;;5033316;28;20056;-65
2023/03/05 13:28:38;;;;;;;49.80;28.30;;;;;;;;;;5033369;28;20505;-65
2023/03/05 13:31:12;;;;;;;51.40;29.00;;;;;;;;;;5051274;28;20045;-65
2023/03/05 13:33:38;;;;;;;55.88;30.75;;;;;;;;;;5043976;28;20424;-65
2023/03/05 13:36:05;;;;;;;15.75;9.52;;;;;;;;;;5052421;28;20485;-65
2023/03/05 13:38:36;;;;;;;6.55;5.90;;;;;;;;;;5043842;28;20405;-66
2023/03/05 13:41:05;;;;;;;11.55;9.27;;;;;;;;;;5052332;28;20060;-65
2023/03/05 13:43:31;;;;;;;15.50;8.80;;;;;;;;;;5052525;28;20053;-65
2023/03/05 13:45:58;;;;;;;16.15;9.70;;;;;;;;;;5043196;28;20073;-64
2023/03/05 13:48:26;;;;;;;10.30;7.80;;;;;;;;;;5042405;28;20076;-64
2023/03/05 13:50:54;;;;;;;10.52;6.20;;;;;;;;;;5024935;28;20049;-65
2023/03/05 13:53:25;;;;;;;10.77;7.88;;;;;;;;;;5051885;28;20136;-65
2023/03/05 13:55:54;;;;;;;47.03;25.10;;;;;;;;;;5041400;28;20041;-65
2023/03/05 13:58:39;;;;;;;38.38;20.50;;;;;;;;;;5052482;28;20059;-64
2023/03/05 14:01:13;;;;;;;31.80;18.33;;;;;;;;;;5044633;28;20053;-64
2023/03/05 14:03:40;;;;;;;17.45;12.50;;;;;;;;;;5051158;28;20052;-64
2023/03/05 14:06:08;;;;;;;17.58;13.13;;;;;;;;;;5043633;28;20053;-65
2023/03/05 14:08:34;;;;;;;14.82;12.10;;;;;;;;;;5052322;28;20051;-64
2023/03/05 14:11:10;;;;;;;12.75;11.45;;;;;;;;;;5035697;28;20048;-64
2023/03/05 14:13:37;;;;;;;11.23;10.13;;;;;;;;;;5052163;28;20060;-64
2023/03/05 14:16:05;;;;;;;13.63;12.27;;;;;;;;;;5041002;28;20059;-65
2023/03/05 14:18:31;;;;;;;10.52;9.52;;;;;;;;;;5052550;28;20168;-64
2023/03/05 14:21:02;;;;;;;7.93;6.25;;;;;;;;;;5040689;28;20136;-64
2023/03/05 14:23:33;;;;;;;10.15;9.25;;;;;;;;;;5052342;28;20076;-65
2023/03/05 14:26:18;;;;;;;12.23;8.48;;;;;;;;;;5030360;28;20480;-65
2023/03/05 14:28:59;;;;;;;12.85;9.40;;;;;;;;;;5052418;28;20044;-65
2023/03/05 14:31:27;;;;;;;12.18;9.07;;;;;;;;;;5036614;28;20136;-64
2023/03/05 14:33:53;;;;;;;;;;;;;;;;;;5052311;28;20048;-64
2023/03/05 14:36:29;;;;;;;8.60;6.78;;;;;;;;;;5038191;28;19924;-64
2023/03/05 14:38:56;;;;;;;11.82;9.38;;;;;;;;;;5051618;28;20049;-64